sensor_id;sensor_type;location;lat;lon;timestamp;temperature;humidity
22562;DHT22;11447;50.562;8.504;2022-09-11T00:00:48;16.40;99.90
22562;DHT22;11447;50.562;8.504;2022-09-11T00:03:15;16.40;99.90
22562;DHT22;11447;50.562;8.504;2022-09-11T00:05:42;16.40;99.90
22562;DHT22;11447;50.562;8.504;2022-09-11T00:08:12;16.40;99.90
22562;DHT22;11447;50.562;8.504;2022-09-11T00:10:40;16.40;99.90
22562;DHT22;11447;50.562;8.504;2022-09-11T00:13:07;16.40;99.90
22562;DHT22;11447;50.562;8.504;2022-09-11T00:15:38;16.40;99.90
22562;DHT22;11447;50.562;8.504;2022-09-11T00:18:05;16.40;99.90
22562;DHT22;11447;50.562;8.504;2022-09-11T00:20:32;16.40;99.90
22562;DHT22;11447;50.562;8.504;2022-09-11T00:23:00;16.40;99.90
22562;DHT22;11447;50.562;8.504;2022-09-11T00:25:33;16.40;99.90
22562;DHT22;11447;50.562;8.504;2022-09-11T00:28:00;16.30;99.90
22562;DHT22;11447;50.562;8.504;2022-09-11T00:30:27;16.30;99.90
22562;DHT22;11447;50.562;8.504;2022-09-11T00:32:54;16.30;99.90
22562;DHT22;11447;50.562;8.504;2022-09-11T00:35:21;16.30;99.90
22562;DHT22;11447;50.562;8.504;2022-09-11T00:37:48;16.40;99.90
22562;DHT22;11447;50.562;8.504;2022-09-11T00:40:15;16.30;99.90
22562;DHT22;11447;50.562;8.504;2022-09-11T00:42:42;16.30;99.90
22562;DHT22;11447;50.562;8.504;2022-09-11T00:45:23;16.30;99.90
22562;DHT22;11447;50.562;8.504;2022-09-11T00:47:50;16.30;99.90
22562;DHT22;11447;50.562;8.504;2022-09-11T00:50:19;16.30;99.90
22562;DHT22;11447;50.562;8.504;2022-09-11T00:52:55;16.30;99.90
22562;DHT22;11447;50.562;8.504;2022-09-11T00:55:24;16.30;99.90
22562;DHT22;11447;50.562;8.504;2022-09-11T00:57:54;16.30;99.90
22562;DHT22;11447;50.562;8.504;2022-09-11T01:00:21;16.30;99.90
22562;DHT22;11447;50.562;8.504;2022-09-11T01:02:51;16.30;99.90
22562;DHT22;11447;50.562;8.504;2022-09-11T01:05:20;16.20;99.90
22562;DHT22;11447;50.562;8.504;2022-09-11T01:07:47;16.30;99.90
22562;DHT22;11447;50.562;8.504;2022-09-11T01:10:15;16.20;99.90
22562;DHT22;11447;50.562;8.504;2022-09-11T01:12:59;16.20;99.90
22562;DHT22;11447;50.562;8.504;2022-09-11T01:15:50;16.20;99.90
22562;DHT22;11447;50.562;8.504;2022-09-11T01:28:22;16.20;99.90
22562;DHT22;11447;50.562;8.504;2022-09-11T01:30:50;16.10;99.90
22562;DHT22;11447;50.562;8.504;2022-09-11T01:33:25;16.10;99.90
22562;DHT22;11447;50.562;8.504;2022-09-11T01:40:54;16.10;99.90
22562;DHT22;11447;50.562;8.504;2022-09-11T01:43:23;16.00;99.90
22562;DHT22;11447;50.562;8.504;2022-09-11T01:45:50;16.10;99.90
22562;DHT22;11447;50.562;8.504;2022-09-11T01:48:22;16.00;99.90
22562;DHT22;11447;50.562;8.504;2022-09-11T01:50:52;16.00;99.90
22562;DHT22;11447;50.562;8.504;2022-09-11T01:53:21;16.00;99.90
22562;DHT22;11447;50.562;8.504;2022-09-11T01:55:53;16.00;99.90
22562;DHT22;11447;50.562;8.504;2022-09-11T01:58:26;16.00;99.90
22562;DHT22;11447;50.562;8.504;2022-09-11T02:00:55;16.00;99.90
22562;DHT22;11447;50.562;8.504;2022-09-11T02:03:25;16.00;99.90
22562;DHT22;11447;50.562;8.504;2022-09-11T02:06:00;16.00;99.90
22562;DHT22;11447;50.562;8.504;2022-09-11T02:11:10;15.90;99.90
22562;DHT22;11447;50.562;8.504;2022-09-11T02:13:52;15.90;99.90
22562;DHT22;11447;50.562;8.504;2022-09-11T02:17:07;15.90;99.90
22562;DHT22;11447;50.562;8.504;2022-09-11T02:19:12;15.90;99.90
22562;DHT22;11447;50.562;8.504;2022-09-11T02:21:41;15.90;99.90
22562;DHT22;11447;50.562;8.504;2022-09-11T02:24:08;15.90;99.90
22562;DHT22;11447;50.562;8.504;2022-09-11T02:26:38;15.90;99.90
22562;DHT22;11447;50.562;8.504;2022-09-11T02:29:06;15.80;99.90
22562;DHT22;11447;50.562;8.504;2022-09-11T02:31:35;15.80;99.90
22562;DHT22;11447;50.562;8.504;2022-09-11T02:34:02;15.80;99.90
22562;DHT22;11447;50.562;8.504;2022-09-11T02:44:57;15.70;99.90
22562;DHT22;11447;50.562;8.504;2022-09-11T02:55:17;15.70;99.90
22562;DHT22;11447;50.562;8.504;2022-09-11T03:00:31;15.70;99.90
22562;DHT22;11447;50.562;8.504;2022-09-11T03:03:00;15.70;99.90
22562;DHT22;11447;50.562;8.504;2022-09-11T03:05:27;15.70;99.90
22562;DHT22;11447;50.562;8.504;2022-09-11T03:07:54;15.70;99.90
22562;DHT22;11447;50.562;8.504;2022-09-11T03:10:21;15.70;99.90
22562;DHT22;11447;50.562;8.504;2022-09-11T03:12:52;15.70;99.90
22562;DHT22;11447;50.562;8.504;2022-09-11T03:15:20;15.70;99.90
22562;DHT22;11447;50.562;8.504;2022-09-11T03:17:48;15.70;99.90
22562;DHT22;11447;50.562;8.504;2022-09-11T03:20:17;15.70;99.90
22562;DHT22;11447;50.562;8.504;2022-09-11T03:22:44;15.70;99.90
22562;DHT22;11447;50.562;8.504;2022-09-11T03:25:11;15.70;99.90
22562;DHT22;11447;50.562;8.504;2022-09-11T03:27:40;15.70;99.90
22562;DHT22;11447;50.562;8.504;2022-09-11T03:30:07;15.70;99.90
22562;DHT22;11447;50.562;8.504;2022-09-11T03:32:34;15.70;99.90
22562;DHT22;11447;50.562;8.504;2022-09-11T03:35:01;15.70;99.90
22562;DHT22;11447;50.562;8.504;2022-09-11T03:37:27;15.70;99.90
22562;DHT22;11447;50.562;8.504;2022-09-11T03:39:54;15.70;99.90
22562;DHT22;11447;50.562;8.504;2022-09-11T03:42:21;15.70;99.90
22562;DHT22;11447;50.562;8.504;2022-09-11T03:44:47;15.70;99.90
22562;DHT22;11447;50.562;8.504;2022-09-11T03:47:14;15.70;99.90
22562;DHT22;11447;50.562;8.504;2022-09-11T03:49:41;15.70;99.90
22562;DHT22;11447;50.562;8.504;2022-09-11T03:52:10;15.70;99.90
22562;DHT22;11447;50.562;8.504;2022-09-11T03:54:39;15.70;99.90
22562;DHT22;11447;50.562;8.504;2022-09-11T03:57:05;15.70;99.90
22562;DHT22;11447;50.562;8.504;2022-09-11T03:59:34;15.70;99.90
22562;DHT22;11447;50.562;8.504;2022-09-11T04:02:01;15.70;99.90
22562;DHT22;11447;50.562;8.504;2022-09-11T04:04:28;15.70;99.90
22562;DHT22;11447;50.562;8.504;2022-09-11T04:06:54;15.70;99.90
22562;DHT22;11447;50.562;8.504;2022-09-11T04:09:21;15.70;99.90
22562;DHT22;11447;50.562;8.504;2022-09-11T04:11:48;15.70;99.90
22562;DHT22;11447;50.562;8.504;2022-09-11T04:14:17;15.70;99.90
22562;DHT22;11447;50.562;8.504;2022-09-11T04:16:44;15.70;99.90
22562;DHT22;11447;50.562;8.504;2022-09-11T04:19:11;15.70;99.90
22562;DHT22;11447;50.562;8.504;2022-09-11T04:21:40;15.60;99.90
22562;DHT22;11447;50.562;8.504;2022-09-11T04:24:08;15.60;99.90
22562;DHT22;11447;50.562;8.504;2022-09-11T04:26:35;15.70;99.90
22562;DHT22;11447;50.562;8.504;2022-09-11T04:29:01;15.60;99.90
22562;DHT22;11447;50.562;8.504;2022-09-11T04:31:28;15.60;99.90
22562;DHT22;11447;50.562;8.504;2022-09-11T04:33:54;15.60;99.90
22562;DHT22;11447;50.562;8.504;2022-09-11T04:36:23;15.60;99.90
22562;DHT22;11447;50.562;8.504;2022-09-11T04:38:53;15.60;99.90
22562;DHT22;11447;50.562;8.504;2022-09-11T04:41:23;15.60;99.90
22562;DHT22;11447;50.562;8.504;2022-09-11T04:43:54;15.60;99.90
22562;DHT22;11447;50.562;8.504;2022-09-11T04:46:23;15.60;99.90
22562;DHT22;11447;50.562;8.504;2022-09-11T04:48:51;15.60;99.90
22562;DHT22;11447;50.562;8.504;2022-09-11T04:53:46;15.60;99.90
22562;DHT22;11447;50.562;8.504;2022-09-11T04:56:12;15.60;99.90
22562;DHT22;11447;50.562;8.504;2022-09-11T04:58:39;15.60;99.90
22562;DHT22;11447;50.562;8.504;2022-09-11T05:01:07;15.60;99.90
22562;DHT22;11447;50.562;8.504;2022-09-11T05:03:34;15.60;99.90
22562;DHT22;11447;50.562;8.504;2022-09-11T05:06:07;15.60;99.90
22562;DHT22;11447;50.562;8.504;2022-09-11T05:08:36;15.50;99.90
22562;DHT22;11447;50.562;8.504;2022-09-11T05:11:03;15.50;99.90
22562;DHT22;11447;50.562;8.504;2022-09-11T05:13:33;15.50;99.90
22562;DHT22;11447;50.562;8.504;2022-09-11T05:16:02;15.50;99.90
22562;DHT22;11447;50.562;8.504;2022-09-11T05:18:29;15.60;99.90
22562;DHT22;11447;50.562;8.504;2022-09-11T05:20:59;15.50;99.90
22562;DHT22;11447;50.562;8.504;2022-09-11T05:23:27;15.60;99.90
22562;DHT22;11447;50.562;8.504;2022-09-11T05:25:57;15.60;99.90
22562;DHT22;11447;50.562;8.504;2022-09-11T05:28:27;15.60;99.90
22562;DHT22;11447;50.562;8.504;2022-09-11T05:30:54;15.50;99.90
22562;DHT22;11447;50.562;8.504;2022-09-11T05:33:22;15.50;99.90
22562;DHT22;11447;50.562;8.504;2022-09-11T05:35:49;15.50;99.90
22562;DHT22;11447;50.562;8.504;2022-09-11T05:38:17;15.50;99.90
22562;DHT22;11447;50.562;8.504;2022-09-11T05:40:47;15.50;99.90
22562;DHT22;11447;50.562;8.504;2022-09-11T05:43:16;15.50;99.90
22562;DHT22;11447;50.562;8.504;2022-09-11T05:45:52;15.50;99.90
22562;DHT22;11447;50.562;8.504;2022-09-11T05:48:19;15.50;99.90
22562;DHT22;11447;50.562;8.504;2022-09-11T05:50:55;15.50;99.90
22562;DHT22;11447;50.562;8.504;2022-09-11T05:53:22;15.60;99.90
22562;DHT22;11447;50.562;8.504;2022-09-11T05:55:48;15.60;99.90
22562;DHT22;11447;50.562;8.504;2022-09-11T05:58:17;15.60;99.90
22562;DHT22;11447;50.562;8.504;2022-09-11T06:00:44;15.60;99.90
22562;DHT22;11447;50.562;8.504;2022-09-11T06:03:13;15.50;99.90
22562;DHT22;11447;50.562;8.504;2022-09-11T06:05:41;15.60;99.90
22562;DHT22;11447;50.562;8.504;2022-09-11T06:08:08;15.60;99.90
22562;DHT22;11447;50.562;8.504;2022-09-11T06:10:35;15.60;99.90
22562;DHT22;11447;50.562;8.504;2022-09-11T06:13:02;15.70;99.90
22562;DHT22;11447;50.562;8.504;2022-09-11T06:15:28;15.60;99.90
22562;DHT22;11447;50.562;8.504;2022-09-11T06:18:12;15.70;99.90
22562;DHT22;11447;50.562;8.504;2022-09-11T06:20:41;15.70;99.90
22562;DHT22;11447;50.562;8.504;2022-09-11T06:23:08;15.70;99.90
22562;DHT22;11447;50.562;8.504;2022-09-11T06:25:37;15.80;99.90
22562;DHT22;11447;50.562;8.504;2022-09-11T06:28:04;15.80;99.90
22562;DHT22;11447;50.562;8.504;2022-09-11T06:30:31;15.80;99.90
22562;DHT22;11447;50.562;8.504;2022-09-11T06:33:03;15.90;99.90
22562;DHT22;11447;50.562;8.504;2022-09-11T06:35:32;15.90;99.90
22562;DHT22;11447;50.562;8.504;2022-09-11T06:38:01;16.00;99.90
22562;DHT22;11447;50.562;8.504;2022-09-11T06:40:30;16.00;99.90
22562;DHT22;11447;50.562;8.504;2022-09-11T06:42:59;16.10;99.90
22562;DHT22;11447;50.562;8.504;2022-09-11T06:45:29;16.20;99.90
22562;DHT22;11447;50.562;8.504;2022-09-11T06:48:01;16.30;99.90
22562;DHT22;11447;50.562;8.504;2022-09-11T06:50:27;16.30;99.90
22562;DHT22;11447;50.562;8.504;2022-09-11T06:52:54;16.40;99.90
22562;DHT22;11447;50.562;8.504;2022-09-11T06:55:21;16.50;99.90
22562;DHT22;11447;50.562;8.504;2022-09-11T06:57:48;16.70;99.90
22562;DHT22;11447;50.562;8.504;2022-09-11T07:00:14;16.90;99.90
22562;DHT22;11447;50.562;8.504;2022-09-11T07:02:43;17.10;99.90
22562;DHT22;11447;50.562;8.504;2022-09-11T07:05:10;17.20;99.90
22562;DHT22;11447;50.562;8.504;2022-09-11T07:07:37;17.40;99.90
22562;DHT22;11447;50.562;8.504;2022-09-11T07:10:06;17.50;99.90
22562;DHT22;11447;50.562;8.504;2022-09-11T07:12:36;17.60;99.90
22562;DHT22;11447;50.562;8.504;2022-09-11T07:15:07;17.90;99.90
22562;DHT22;11447;50.562;8.504;2022-09-11T07:17:39;18.70;99.90
22562;DHT22;11447;50.562;8.504;2022-09-11T07:20:05;19.60;99.90
22562;DHT22;11447;50.562;8.504;2022-09-11T07:22:35;19.50;99.90
22562;DHT22;11447;50.562;8.504;2022-09-11T07:25:04;19.80;99.90
22562;DHT22;11447;50.562;8.504;2022-09-11T07:27:33;20.00;99.90
22562;DHT22;11447;50.562;8.504;2022-09-11T07:29:59;19.70;99.90
22562;DHT22;11447;50.562;8.504;2022-09-11T07:32:28;19.40;99.90
22562;DHT22;11447;50.562;8.504;2022-09-11T07:34:56;19.20;99.90
22562;DHT22;11447;50.562;8.504;2022-09-11T07:37:23;19.20;99.90
22562;DHT22;11447;50.562;8.504;2022-09-11T07:39:49;19.10;99.90
22562;DHT22;11447;50.562;8.504;2022-09-11T07:42:16;19.10;99.90
22562;DHT22;11447;50.562;8.504;2022-09-11T07:44:42;19.00;99.90
22562;DHT22;11447;50.562;8.504;2022-09-11T07:47:09;19.10;99.90
22562;DHT22;11447;50.562;8.504;2022-09-11T07:49:38;19.30;99.90
22562;DHT22;11447;50.562;8.504;2022-09-11T07:52:06;19.80;99.90
22562;DHT22;11447;50.562;8.504;2022-09-11T07:54:40;20.60;99.90
22562;DHT22;11447;50.562;8.504;2022-09-11T07:57:06;21.30;99.90
22562;DHT22;11447;50.562;8.504;2022-09-11T07:59:33;21.40;99.90
22562;DHT22;11447;50.562;8.504;2022-09-11T08:01:59;21.40;99.90
22562;DHT22;11447;50.562;8.504;2022-09-11T08:04:26;21.20;99.90
22562;DHT22;11447;50.562;8.504;2022-09-11T08:06:54;21.10;99.90
22562;DHT22;11447;50.562;8.504;2022-09-11T08:09:20;20.90;99.90
22562;DHT22;11447;50.562;8.504;2022-09-11T08:11:47;20.60;99.90
22562;DHT22;11447;50.562;8.504;2022-09-11T08:14:18;20.30;99.90
22562;DHT22;11447;50.562;8.504;2022-09-11T08:16:45;20.00;99.90
22562;DHT22;11447;50.562;8.504;2022-09-11T08:19:18;19.80;99.90
22562;DHT22;11447;50.562;8.504;2022-09-11T08:21:45;19.60;99.90
22562;DHT22;11447;50.562;8.504;2022-09-11T08:24:13;19.50;99.90
22562;DHT22;11447;50.562;8.504;2022-09-11T08:26:40;19.40;99.90
22562;DHT22;11447;50.562;8.504;2022-09-11T08:29:12;19.40;99.90
22562;DHT22;11447;50.562;8.504;2022-09-11T08:31:38;19.40;99.90
22562;DHT22;11447;50.562;8.504;2022-09-11T08:34:05;19.50;99.90
22562;DHT22;11447;50.562;8.504;2022-09-11T08:36:31;19.60;99.90
22562;DHT22;11447;50.562;8.504;2022-09-11T08:39:00;19.70;99.90
22562;DHT22;11447;50.562;8.504;2022-09-11T08:41:36;19.80;99.90
22562;DHT22;11447;50.562;8.504;2022-09-11T08:46:41;19.90;99.90
22562;DHT22;11447;50.562;8.504;2022-09-11T08:51:35;20.20;99.90
22562;DHT22;11447;50.562;8.504;2022-09-11T08:54:02;20.40;99.90
22562;DHT22;11447;50.562;8.504;2022-09-11T08:56:29;20.50;99.90
22562;DHT22;11447;50.562;8.504;2022-09-11T09:01:37;20.60;99.90
22562;DHT22;11447;50.562;8.504;2022-09-11T09:06:46;20.60;99.90
22562;DHT22;11447;50.562;8.504;2022-09-11T09:12:04;20.50;99.90
22562;DHT22;11447;50.562;8.504;2022-09-11T09:17:17;20.40;99.90
22562;DHT22;11447;50.562;8.504;2022-09-11T09:22:41;20.30;99.90
22562;DHT22;11447;50.562;8.504;2022-09-11T09:25:13;20.30;99.90
22562;DHT22;11447;50.562;8.504;2022-09-11T09:27:48;20.30;99.90
22562;DHT22;11447;50.562;8.504;2022-09-11T09:30:19;20.30;99.90
22562;DHT22;11447;50.562;8.504;2022-09-11T09:35:51;20.20;99.90
22562;DHT22;11447;50.562;8.504;2022-09-11T09:38:25;20.20;99.90
22562;DHT22;11447;50.562;8.504;2022-09-11T09:46:24;20.30;99.90
22562;DHT22;11447;50.562;8.504;2022-09-11T09:48:53;20.40;99.90
22562;DHT22;11447;50.562;8.504;2022-09-11T09:51:21;20.50;99.90
22562;DHT22;11447;50.562;8.504;2022-09-11T09:53:51;20.50;99.90
22562;DHT22;11447;50.562;8.504;2022-09-11T09:56:22;20.60;99.90
22562;DHT22;11447;50.562;8.504;2022-09-11T09:59:05;20.70;99.90
22562;DHT22;11447;50.562;8.504;2022-09-11T10:06:39;21.00;99.90
22562;DHT22;11447;50.562;8.504;2022-09-11T10:09:16;21.00;99.90
22562;DHT22;11447;50.562;8.504;2022-09-11T10:11:49;21.10;99.90
22562;DHT22;11447;50.562;8.504;2022-09-11T10:14:19;21.20;99.90
22562;DHT22;11447;50.562;8.504;2022-09-11T10:17:06;21.30;99.90
22562;DHT22;11447;50.562;8.504;2022-09-11T10:19:46;21.40;99.90
22562;DHT22;11447;50.562;8.504;2022-09-11T10:22:24;21.40;99.90
22562;DHT22;11447;50.562;8.504;2022-09-11T10:27:31;21.50;99.90
22562;DHT22;11447;50.562;8.504;2022-09-11T10:30:03;21.40;99.90
22562;DHT22;11447;50.562;8.504;2022-09-11T10:32:34;21.40;99.90
22562;DHT22;11447;50.562;8.504;2022-09-11T10:35:07;21.30;99.40
22562;DHT22;11447;50.562;8.504;2022-09-11T10:37:34;21.20;99.50
22562;DHT22;11447;50.562;8.504;2022-09-11T10:40:05;21.20;99.90
22562;DHT22;11447;50.562;8.504;2022-09-11T10:42:32;21.10;97.90
22562;DHT22;11447;50.562;8.504;2022-09-11T10:45:05;21.10;97.60
22562;DHT22;11447;50.562;8.504;2022-09-11T10:47:37;21.10;98.50
22562;DHT22;11447;50.562;8.504;2022-09-11T10:55:18;21.30;99.30
22562;DHT22;11447;50.562;8.504;2022-09-11T10:57:52;21.40;98.10
22562;DHT22;11447;50.562;8.504;2022-09-11T11:00:21;21.40;97.20
22562;DHT22;11447;50.562;8.504;2022-09-11T11:05:23;21.50;97.90
22562;DHT22;11447;50.562;8.504;2022-09-11T11:13:52;21.60;96.00
22562;DHT22;11447;50.562;8.504;2022-09-11T11:18:52;21.70;96.70
22562;DHT22;11447;50.562;8.504;2022-09-11T11:26:48;21.90;94.10
22562;DHT22;11447;50.562;8.504;2022-09-11T11:42:36;22.40;91.50
22562;DHT22;11447;50.562;8.504;2022-09-11T11:47:34;22.30;89.50
22562;DHT22;11447;50.562;8.504;2022-09-11T11:50:04;22.20;90.80
22562;DHT22;11447;50.562;8.504;2022-09-11T11:52:50;22.10;91.00
22562;DHT22;11447;50.562;8.504;2022-09-11T11:57:48;22.00;88.70
22562;DHT22;11447;50.562;8.504;2022-09-11T12:00:19;21.90;88.80
22562;DHT22;11447;50.562;8.504;2022-09-11T12:02:50;21.90;90.40
22562;DHT22;11447;50.562;8.504;2022-09-11T12:05:25;21.90;90.20
22562;DHT22;11447;50.562;8.504;2022-09-11T12:07:53;21.90;90.30
22562;DHT22;11447;50.562;8.504;2022-09-11T12:10:25;22.00;90.90
22562;DHT22;11447;50.562;8.504;2022-09-11T12:12:55;22.10;89.20
22562;DHT22;11447;50.562;8.504;2022-09-11T12:15:26;22.20;89.90
22562;DHT22;11447;50.562;8.504;2022-09-11T12:20:46;22.40;87.20
22562;DHT22;11447;50.562;8.504;2022-09-11T12:28:35;22.70;86.20
22562;DHT22;11447;50.562;8.504;2022-09-11T12:36:06;23.00;85.40
22562;DHT22;11447;50.562;8.504;2022-09-11T12:38:56;23.00;83.30
22562;DHT22;11447;50.562;8.504;2022-09-11T12:43:48;23.10;80.30
22562;DHT22;11447;50.562;8.504;2022-09-11T12:48:51;23.20;80.60
22562;DHT22;11447;50.562;8.504;2022-09-11T12:51:39;23.10;77.20
22562;DHT22;11447;50.562;8.504;2022-09-11T12:54:12;22.90;76.00
22562;DHT22;11447;50.562;8.504;2022-09-11T12:56:47;22.70;79.90
22562;DHT22;11447;50.562;8.504;2022-09-11T13:01:59;22.50;79.00
22562;DHT22;11447;50.562;8.504;2022-09-11T13:04:26;22.50;80.50
22562;DHT22;11447;50.562;8.504;2022-09-11T13:06:59;22.50;81.80
22562;DHT22;11447;50.562;8.504;2022-09-11T13:09:39;22.40;79.00
22562;DHT22;11447;50.562;8.504;2022-09-11T13:14:51;22.40;81.30
22562;DHT22;11447;50.562;8.504;2022-09-11T13:17:23;22.50;81.80
22562;DHT22;11447;50.562;8.504;2022-09-11T13:22:36;22.60;79.30
22562;DHT22;11447;50.562;8.504;2022-09-11T13:25:04;22.70;79.10
22562;DHT22;11447;50.562;8.504;2022-09-11T13:27:32;22.70;78.20
22562;DHT22;11447;50.562;8.504;2022-09-11T13:30:01;22.60;79.40
22562;DHT22;11447;50.562;8.504;2022-09-11T13:32:28;22.60;80.30
22562;DHT22;11447;50.562;8.504;2022-09-11T13:34:55;22.70;80.00
22562;DHT22;11447;50.562;8.504;2022-09-11T13:37:32;22.70;78.80
22562;DHT22;11447;50.562;8.504;2022-09-11T13:40:01;22.60;78.80
22562;DHT22;11447;50.562;8.504;2022-09-11T13:42:29;22.50;79.60
22562;DHT22;11447;50.562;8.504;2022-09-11T13:44:58;22.50;80.30
22562;DHT22;11447;50.562;8.504;2022-09-11T13:47:27;22.40;82.20
22562;DHT22;11447;50.562;8.504;2022-09-11T13:49:59;22.40;83.00
22562;DHT22;11447;50.562;8.504;2022-09-11T13:52:26;22.40;82.70
22562;DHT22;11447;50.562;8.504;2022-09-11T13:54:56;22.40;82.30
22562;DHT22;11447;50.562;8.504;2022-09-11T13:57:24;22.40;81.60
22562;DHT22;11447;50.562;8.504;2022-09-11T13:59:53;22.30;81.90
22562;DHT22;11447;50.562;8.504;2022-09-11T14:02:27;22.20;82.00
22562;DHT22;11447;50.562;8.504;2022-09-11T14:04:59;22.20;83.40
22562;DHT22;11447;50.562;8.504;2022-09-11T14:07:27;22.30;80.70
22562;DHT22;11447;50.562;8.504;2022-09-11T14:12:30;22.40;80.10
22562;DHT22;11447;50.562;8.504;2022-09-11T14:15:02;22.40;81.40
22562;DHT22;11447;50.562;8.504;2022-09-11T14:17:33;22.60;81.30
22562;DHT22;11447;50.562;8.504;2022-09-11T14:19:59;22.70;80.60
22562;DHT22;11447;50.562;8.504;2022-09-11T14:22:28;22.80;80.30
22562;DHT22;11447;50.562;8.504;2022-09-11T14:25:08;22.80;80.20
22562;DHT22;11447;50.562;8.504;2022-09-11T14:27:40;22.90;78.10
22562;DHT22;11447;50.562;8.504;2022-09-11T14:30:23;22.90;77.20
22562;DHT22;11447;50.562;8.504;2022-09-11T14:35:35;23.00;76.70
22562;DHT22;11447;50.562;8.504;2022-09-11T14:38:02;23.00;78.20
22562;DHT22;11447;50.562;8.504;2022-09-11T14:40:28;23.00;77.10
22562;DHT22;11447;50.562;8.504;2022-09-11T14:42:55;23.10;75.50
22562;DHT22;11447;50.562;8.504;2022-09-11T14:45:23;23.10;75.30
22562;DHT22;11447;50.562;8.504;2022-09-11T14:47:51;23.20;76.30
22562;DHT22;11447;50.562;8.504;2022-09-11T14:50:18;23.20;75.30
22562;DHT22;11447;50.562;8.504;2022-09-11T14:52:45;23.30;74.20
22562;DHT22;11447;50.562;8.504;2022-09-11T14:55:13;23.30;72.50
22562;DHT22;11447;50.562;8.504;2022-09-11T14:57:41;23.30;70.20
22562;DHT22;11447;50.562;8.504;2022-09-11T15:00:09;23.30;70.90
22562;DHT22;11447;50.562;8.504;2022-09-11T15:02:36;23.30;71.60
22562;DHT22;11447;50.562;8.504;2022-09-11T15:05:04;23.30;72.50
22562;DHT22;11447;50.562;8.504;2022-09-11T15:07:31;23.30;71.70
22562;DHT22;11447;50.562;8.504;2022-09-11T15:10:01;23.40;71.70
22562;DHT22;11447;50.562;8.504;2022-09-11T15:12:28;23.30;71.70
22562;DHT22;11447;50.562;8.504;2022-09-11T15:14:57;23.40;71.00
22562;DHT22;11447;50.562;8.504;2022-09-11T15:17:25;23.40;71.70
22562;DHT22;11447;50.562;8.504;2022-09-11T15:19:57;23.40;70.10
22562;DHT22;11447;50.562;8.504;2022-09-11T15:22:26;23.40;71.00
22562;DHT22;11447;50.562;8.504;2022-09-11T15:24:52;23.40;67.30
22562;DHT22;11447;50.562;8.504;2022-09-11T15:27:22;23.30;68.10
22562;DHT22;11447;50.562;8.504;2022-09-11T15:29:50;23.20;67.60
22562;DHT22;11447;50.562;8.504;2022-09-11T15:32:19;23.10;68.30
22562;DHT22;11447;50.562;8.504;2022-09-11T15:34:49;22.90;70.20
22562;DHT22;11447;50.562;8.504;2022-09-11T15:37:16;22.80;73.00
22562;DHT22;11447;50.562;8.504;2022-09-11T15:39:45;22.60;74.20
22562;DHT22;11447;50.562;8.504;2022-09-11T15:42:12;22.50;75.80
22562;DHT22;11447;50.562;8.504;2022-09-11T15:44:41;22.60;76.60
22562;DHT22;11447;50.562;8.504;2022-09-11T15:47:08;22.60;77.10
22562;DHT22;11447;50.562;8.504;2022-09-11T15:49:37;22.70;76.40
22562;DHT22;11447;50.562;8.504;2022-09-11T15:52:05;22.70;76.90
22562;DHT22;11447;50.562;8.504;2022-09-11T15:54:31;22.70;75.10
22562;DHT22;11447;50.562;8.504;2022-09-11T15:56:58;22.60;75.70
22562;DHT22;11447;50.562;8.504;2022-09-11T15:59:24;22.70;76.00
22562;DHT22;11447;50.562;8.504;2022-09-11T16:01:51;22.60;75.40
22562;DHT22;11447;50.562;8.504;2022-09-11T16:04:18;22.50;75.50
22562;DHT22;11447;50.562;8.504;2022-09-11T16:06:46;22.40;76.00
22562;DHT22;11447;50.562;8.504;2022-09-11T16:09:20;22.30;76.50
22562;DHT22;11447;50.562;8.504;2022-09-11T16:11:47;22.20;79.60
22562;DHT22;11447;50.562;8.504;2022-09-11T16:14:22;22.20;81.60
22562;DHT22;11447;50.562;8.504;2022-09-11T16:16:49;22.00;82.30
22562;DHT22;11447;50.562;8.504;2022-09-11T16:19:17;21.90;83.10
22562;DHT22;11447;50.562;8.504;2022-09-11T16:21:44;21.80;83.80
22562;DHT22;11447;50.562;8.504;2022-09-11T16:24:11;21.80;83.90
22562;DHT22;11447;50.562;8.504;2022-09-11T16:26:40;21.70;84.70
22562;DHT22;11447;50.562;8.504;2022-09-11T16:29:07;21.80;84.30
22562;DHT22;11447;50.562;8.504;2022-09-11T16:31:35;21.70;84.50
22562;DHT22;11447;50.562;8.504;2022-09-11T16:34:02;21.60;85.10
22562;DHT22;11447;50.562;8.504;2022-09-11T16:36:31;21.50;86.40
22562;DHT22;11447;50.562;8.504;2022-09-11T16:39:07;21.20;87.00
22562;DHT22;11447;50.562;8.504;2022-09-11T16:41:36;21.10;87.80
22562;DHT22;11447;50.562;8.504;2022-09-11T16:44:04;21.10;88.40
22562;DHT22;11447;50.562;8.504;2022-09-11T16:46:32;21.00;88.70
22562;DHT22;11447;50.562;8.504;2022-09-11T16:48:59;20.90;89.30
22562;DHT22;11447;50.562;8.504;2022-09-11T16:51:28;20.80;89.90
22562;DHT22;11447;50.562;8.504;2022-09-11T16:53:55;20.70;90.40
22562;DHT22;11447;50.562;8.504;2022-09-11T16:56:24;20.70;90.80
22562;DHT22;11447;50.562;8.504;2022-09-11T16:58:51;20.70;91.00
22562;DHT22;11447;50.562;8.504;2022-09-11T17:01:20;20.70;91.10
22562;DHT22;11447;50.562;8.504;2022-09-11T17:03:48;20.80;91.10
22562;DHT22;11447;50.562;8.504;2022-09-11T17:06:15;20.80;91.20
22562;DHT22;11447;50.562;8.504;2022-09-11T17:08:44;20.80;91.10
22562;DHT22;11447;50.562;8.504;2022-09-11T17:11:12;20.80;91.30
22562;DHT22;11447;50.562;8.504;2022-09-11T17:13:39;20.80;91.40
22562;DHT22;11447;50.562;8.504;2022-09-11T17:16:07;20.80;91.50
22562;DHT22;11447;50.562;8.504;2022-09-11T17:18:42;20.90;91.60
22562;DHT22;11447;50.562;8.504;2022-09-11T17:21:10;20.80;91.70
22562;DHT22;11447;50.562;8.504;2022-09-11T17:23:37;20.80;91.80
22562;DHT22;11447;50.562;8.504;2022-09-11T17:26:08;20.80;91.90
22562;DHT22;11447;50.562;8.504;2022-09-11T17:28:35;20.80;91.90
22562;DHT22;11447;50.562;8.504;2022-09-11T17:31:06;20.80;91.90
22562;DHT22;11447;50.562;8.504;2022-09-11T17:33:33;20.80;91.90
22562;DHT22;11447;50.562;8.504;2022-09-11T17:36:01;20.80;91.80
22562;DHT22;11447;50.562;8.504;2022-09-11T17:38:29;20.80;91.80
22562;DHT22;11447;50.562;8.504;2022-09-11T17:40:58;20.70;91.80
22562;DHT22;11447;50.562;8.504;2022-09-11T17:43:25;20.70;92.00
22562;DHT22;11447;50.562;8.504;2022-09-11T17:45:58;20.70;92.20
22562;DHT22;11447;50.562;8.504;2022-09-11T17:48:25;20.70;92.20
22562;DHT22;11447;50.562;8.504;2022-09-11T17:51:04;20.70;92.40
22562;DHT22;11447;50.562;8.504;2022-09-11T17:53:34;20.60;92.50
22562;DHT22;11447;50.562;8.504;2022-09-11T17:56:05;20.50;92.80
22562;DHT22;11447;50.562;8.504;2022-09-11T17:58:34;20.50;93.30
22562;DHT22;11447;50.562;8.504;2022-09-11T18:01:05;20.50;94.00
22562;DHT22;11447;50.562;8.504;2022-09-11T18:03:33;20.40;94.50
22562;DHT22;11447;50.562;8.504;2022-09-11T18:06:03;20.30;95.00
22562;DHT22;11447;50.562;8.504;2022-09-11T18:08:30;20.20;95.30